sensor_id;sensor_type;location;lat;lon;timestamp;temperature;humidity
58153;DHT22;43967;51.634;5.566;2023-04-25T00:00:23;17.30;60.40
58153;DHT22;43967;51.634;5.566;2023-04-25T00:05:45;17.30;60.40
58153;DHT22;43967;51.634;5.566;2023-04-25T00:11:06;17.30;60.50
58153;DHT22;43967;51.634;5.566;2023-04-25T00:16:28;17.30;60.60
58153;DHT22;43967;51.634;5.566;2023-04-25T00:21:49;17.40;60.70
58153;DHT22;43967;51.634;5.566;2023-04-25T00:27:10;17.40;60.70
58153;DHT22;43967;51.634;5.566;2023-04-25T00:32:32;17.40;60.70
58153;DHT22;43967;51.634;5.566;2023-04-25T00:37:54;17.40;60.70
58153;DHT22;43967;51.634;5.566;2023-04-25T00:43:15;17.40;60.50
58153;DHT22;43967;51.634;5.566;2023-04-25T00:48:36;17.40;60.40
58153;DHT22;43967;51.634;5.566;2023-04-25T00:53:58;17.40;60.20
58153;DHT22;43967;51.634;5.566;2023-04-25T00:59:19;17.40;60.00
58153;DHT22;43967;51.634;5.566;2023-04-25T01:04:42;17.50;59.90
58153;DHT22;43967;51.634;5.566;2023-04-25T01:10:05;17.40;59.60
58153;DHT22;43967;51.634;5.566;2023-04-25T01:15:26;17.40;59.30
58153;DHT22;43967;51.634;5.566;2023-04-25T01:20:50;17.40;59.30
58153;DHT22;43967;51.634;5.566;2023-04-25T01:26:13;17.40;59.20
58153;DHT22;43967;51.634;5.566;2023-04-25T01:31:35;17.40;59.10
58153;DHT22;43967;51.634;5.566;2023-04-25T01:36:59;17.30;59.10
58153;DHT22;43967;51.634;5.566;2023-04-25T01:42:21;17.30;59.00
58153;DHT22;43967;51.634;5.566;2023-04-25T01:47:42;17.30;59.00
58153;DHT22;43967;51.634;5.566;2023-04-25T01:53:04;17.30;59.30
58153;DHT22;43967;51.634;5.566;2023-04-25T01:58:26;17.30;59.50
58153;DHT22;43967;51.634;5.566;2023-04-25T02:03:48;17.30;59.70
58153;DHT22;43967;51.634;5.566;2023-04-25T02:09:10;17.30;59.90
58153;DHT22;43967;51.634;5.566;2023-04-25T02:14:31;17.30;60.00
58153;DHT22;43967;51.634;5.566;2023-04-25T02:19:52;17.30;60.80
58153;DHT22;43967;51.634;5.566;2023-04-25T02:25:14;17.40;60.20
58153;DHT22;43967;51.634;5.566;2023-04-25T02:30:35;17.30;60.30
58153;DHT22;43967;51.634;5.566;2023-04-25T02:35:59;17.40;60.30
58153;DHT22;43967;51.634;5.566;2023-04-25T02:41:20;17.40;61.00
58153;DHT22;43967;51.634;5.566;2023-04-25T02:46:41;17.40;60.20
58153;DHT22;43967;51.634;5.566;2023-04-25T02:52:03;17.40;60.10
58153;DHT22;43967;51.634;5.566;2023-04-25T02:57:24;17.40;60.00
58153;DHT22;43967;51.634;5.566;2023-04-25T03:02:46;17.40;59.80
58153;DHT22;43967;51.634;5.566;2023-04-25T03:08:08;17.40;59.50
58153;DHT22;43967;51.634;5.566;2023-04-25T03:13:30;17.40;59.40
58153;DHT22;43967;51.634;5.566;2023-04-25T03:18:53;17.40;59.10
58153;DHT22;43967;51.634;5.566;2023-04-25T03:24:14;17.40;59.00
58153;DHT22;43967;51.634;5.566;2023-04-25T03:29:35;17.30;58.80
58153;DHT22;43967;51.634;5.566;2023-04-25T03:34:56;17.30;58.90
58153;DHT22;43967;51.634;5.566;2023-04-25T03:40:18;17.30;58.80
58153;DHT22;43967;51.634;5.566;2023-04-25T03:45:39;17.30;58.70
58153;DHT22;43967;51.634;5.566;2023-04-25T03:51:00;17.20;58.60
58153;DHT22;43967;51.634;5.566;2023-04-25T03:56:21;17.30;58.80
58153;DHT22;43967;51.634;5.566;2023-04-25T04:01:43;17.30;58.70
58153;DHT22;43967;51.634;5.566;2023-04-25T04:07:04;17.30;58.70
58153;DHT22;43967;51.634;5.566;2023-04-25T04:12:27;17.20;58.60
58153;DHT22;43967;51.634;5.566;2023-04-25T04:17:49;17.30;58.80
58153;DHT22;43967;51.634;5.566;2023-04-25T04:23:10;17.20;58.90
58153;DHT22;43967;51.634;5.566;2023-04-25T04:28:31;17.20;59.10
58153;DHT22;43967;51.634;5.566;2023-04-25T04:33:52;17.20;59.30
58153;DHT22;43967;51.634;5.566;2023-04-25T04:39:14;17.20;59.20
58153;DHT22;43967;51.634;5.566;2023-04-25T04:44:35;17.20;59.10
58153;DHT22;43967;51.634;5.566;2023-04-25T04:49:57;17.20;59.10
58153;DHT22;43967;51.634;5.566;2023-04-25T04:55:19;17.30;59.00
58153;DHT22;43967;51.634;5.566;2023-04-25T05:00:41;17.20;58.80
58153;DHT22;43967;51.634;5.566;2023-04-25T05:06:02;17.30;58.80
58153;DHT22;43967;51.634;5.566;2023-04-25T05:11:24;17.20;58.90
58153;DHT22;43967;51.634;5.566;2023-04-25T05:16:45;17.20;59.10
58153;DHT22;43967;51.634;5.566;2023-04-25T05:22:07;17.20;59.30
58153;DHT22;43967;51.634;5.566;2023-04-25T05:27:28;17.20;59.40
58153;DHT22;43967;51.634;5.566;2023-04-25T05:32:49;17.20;59.60
58153;DHT22;43967;51.634;5.566;2023-04-25T05:38:11;17.20;59.70
58153;DHT22;43967;51.634;5.566;2023-04-25T05:43:32;17.20;59.80
58153;DHT22;43967;51.634;5.566;2023-04-25T05:48:53;17.20;59.90
58153;DHT22;43967;51.634;5.566;2023-04-25T05:54:15;17.20;60.00
58153;DHT22;43967;51.634;5.566;2023-04-25T05:59:39;17.30;60.00
58153;DHT22;43967;51.634;5.566;2023-04-25T06:05:00;17.30;60.10
58153;DHT22;43967;51.634;5.566;2023-04-25T06:10:23;17.30;60.10
58153;DHT22;43967;51.634;5.566;2023-04-25T06:15:45;17.30;60.10
58153;DHT22;43967;51.634;5.566;2023-04-25T06:21:06;17.40;60.20
58153;DHT22;43967;51.634;5.566;2023-04-25T06:26:27;17.40;60.30
58153;DHT22;43967;51.634;5.566;2023-04-25T06:31:48;17.40;60.20
58153;DHT22;43967;51.634;5.566;2023-04-25T06:37:10;17.40;60.30
58153;DHT22;43967;51.634;5.566;2023-04-25T06:42:31;17.40;60.20
58153;DHT22;43967;51.634;5.566;2023-04-25T06:47:52;17.50;60.30
58153;DHT22;43967;51.634;5.566;2023-04-25T06:53:13;17.50;60.40
58153;DHT22;43967;51.634;5.566;2023-04-25T06:58:35;17.60;60.30
58153;DHT22;43967;51.634;5.566;2023-04-25T07:03:56;17.60;60.30
58153;DHT22;43967;51.634;5.566;2023-04-25T07:09:17;17.60;60.20
58153;DHT22;43967;51.634;5.566;2023-04-25T07:14:40;17.70;60.10
58153;DHT22;43967;51.634;5.566;2023-04-25T07:20:02;17.70;59.90
58153;DHT22;43967;51.634;5.566;2023-04-25T07:25:23;17.70;59.70
58153;DHT22;43967;51.634;5.566;2023-04-25T07:30:44;17.70;59.80
58153;DHT22;43967;51.634;5.566;2023-04-25T07:36:06;17.70;59.70
58153;DHT22;43967;51.634;5.566;2023-04-25T07:41:28;17.80;59.70
58153;DHT22;43967;51.634;5.566;2023-04-25T07:46:50;17.80;59.50
58153;DHT22;43967;51.634;5.566;2023-04-25T07:52:12;17.80;59.50
58153;DHT22;43967;51.634;5.566;2023-04-25T07:57:33;17.80;59.40
58153;DHT22;43967;51.634;5.566;2023-04-25T08:02:55;17.80;59.10
58153;DHT22;43967;51.634;5.566;2023-04-25T08:08:17;17.70;59.00
58153;DHT22;43967;51.634;5.566;2023-04-25T08:13:38;17.70;59.00
58153;DHT22;43967;51.634;5.566;2023-04-25T08:19:00;17.70;59.00
58153;DHT22;43967;51.634;5.566;2023-04-25T08:24:24;17.70;59.00
58153;DHT22;43967;51.634;5.566;2023-04-25T08:29:45;17.70;58.90
58153;DHT22;43967;51.634;5.566;2023-04-25T08:35:07;17.70;58.90
58153;DHT22;43967;51.634;5.566;2023-04-25T08:40:28;17.70;58.90
58153;DHT22;43967;51.634;5.566;2023-04-25T08:45:50;17.70;59.00
58153;DHT22;43967;51.634;5.566;2023-04-25T08:51:24;17.70;58.90
58153;DHT22;43967;51.634;5.566;2023-04-25T08:56:49;17.60;58.80
58153;DHT22;43967;51.634;5.566;2023-04-25T09:02:11;17.60;58.70
58153;DHT22;43967;51.634;5.566;2023-04-25T09:07:32;17.60;58.80
58153;DHT22;43967;51.634;5.566;2023-04-25T09:13:08;17.60;58.60
58153;DHT22;43967;51.634;5.566;2023-04-25T09:18:30;17.60;58.70
58153;DHT22;43967;51.634;5.566;2023-04-25T09:23:52;17.60;58.70
58153;DHT22;43967;51.634;5.566;2023-04-25T09:29:13;17.60;58.70
58153;DHT22;43967;51.634;5.566;2023-04-25T09:34:39;17.60;58.70
58153;DHT22;43967;51.634;5.566;2023-04-25T09:40:06;17.60;58.60
58153;DHT22;43967;51.634;5.566;2023-04-25T09:45:29;17.60;58.60
58153;DHT22;43967;51.634;5.566;2023-04-25T09:56:24;17.50;58.60
58153;DHT22;43967;51.634;5.566;2023-04-25T10:01:48;17.50;58.60
58153;DHT22;43967;51.634;5.566;2023-04-25T10:07:11;17.50;58.60
58153;DHT22;43967;51.634;5.566;2023-04-25T10:12:33;17.50;58.70
58153;DHT22;43967;51.634;5.566;2023-04-25T10:17:55;17.50;58.70
58153;DHT22;43967;51.634;5.566;2023-04-25T10:23:17;17.50;58.70
58153;DHT22;43967;51.634;5.566;2023-04-25T10:28:57;17.50;58.70
58153;DHT22;43967;51.634;5.566;2023-04-25T10:34:19;17.50;58.70
58153;DHT22;43967;51.634;5.566;2023-04-25T10:39:41;17.50;58.70
58153;DHT22;43967;51.634;5.566;2023-04-25T10:45:05;17.50;58.70
58153;DHT22;43967;51.634;5.566;2023-04-25T10:50:37;17.50;58.70
58153;DHT22;43967;51.634;5.566;2023-04-25T10:55:58;17.50;58.70
58153;DHT22;43967;51.634;5.566;2023-04-25T11:01:21;17.50;58.70
58153;DHT22;43967;51.634;5.566;2023-04-25T11:12:45;17.40;58.50
58153;DHT22;43967;51.634;5.566;2023-04-25T11:18:06;17.40;58.50
58153;DHT22;43967;51.634;5.566;2023-04-25T11:23:28;17.40;58.40
58153;DHT22;43967;51.634;5.566;2023-04-25T11:28:50;17.40;58.50
58153;DHT22;43967;51.634;5.566;2023-04-25T11:34:16;17.40;58.40
58153;DHT22;43967;51.634;5.566;2023-04-25T11:39:37;17.40;58.40
58153;DHT22;43967;51.634;5.566;2023-04-25T11:44:59;17.40;59.20
58153;DHT22;43967;51.634;5.566;2023-04-25T11:50:20;17.40;58.50
58153;DHT22;43967;51.634;5.566;2023-04-25T11:55:41;17.40;58.40
58153;DHT22;43967;51.634;5.566;2023-04-25T12:01:03;17.40;58.40
58153;DHT22;43967;51.634;5.566;2023-04-25T12:06:31;17.40;58.40
58153;DHT22;43967;51.634;5.566;2023-04-25T12:11:56;17.40;58.70
58153;DHT22;43967;51.634;5.566;2023-04-25T12:17:18;17.40;58.40
58153;DHT22;43967;51.634;5.566;2023-04-25T12:22:47;17.40;58.40
58153;DHT22;43967;51.634;5.566;2023-04-25T12:28:19;17.40;58.40
58153;DHT22;43967;51.634;5.566;2023-04-25T12:33:42;17.40;58.30
58153;DHT22;43967;51.634;5.566;2023-04-25T12:39:04;17.40;58.30
58153;DHT22;43967;51.634;5.566;2023-04-25T12:44:26;17.40;58.30
58153;DHT22;43967;51.634;5.566;2023-04-25T12:49:47;17.40;58.20
58153;DHT22;43967;51.634;5.566;2023-04-25T12:55:09;17.40;58.20
58153;DHT22;43967;51.634;5.566;2023-04-25T13:00:31;17.40;58.20
58153;DHT22;43967;51.634;5.566;2023-04-25T13:05:55;17.50;58.30
58153;DHT22;43967;51.634;5.566;2023-04-25T13:11:16;17.40;58.20
58153;DHT22;43967;51.634;5.566;2023-04-25T13:16:37;17.40;58.20
58153;DHT22;43967;51.634;5.566;2023-04-25T13:21:59;17.40;58.20
58153;DHT22;43967;51.634;5.566;2023-04-25T13:27:20;17.40;58.20
58153;DHT22;43967;51.634;5.566;2023-04-25T13:32:42;17.40;58.20
58153;DHT22;43967;51.634;5.566;2023-04-25T13:38:07;17.50;58.30
58153;DHT22;43967;51.634;5.566;2023-04-25T13:43:28;17.50;58.00
58153;DHT22;43967;51.634;5.566;2023-04-25T13:48:51;17.60;57.90
58153;DHT22;43967;51.634;5.566;2023-04-25T13:54:12;17.60;57.70
58153;DHT22;43967;51.634;5.566;2023-04-25T13:59:34;17.60;57.80
58153;DHT22;43967;51.634;5.566;2023-04-25T14:04:57;17.60;57.80
58153;DHT22;43967;51.634;5.566;2023-04-25T14:10:18;17.50;57.90
58153;DHT22;43967;51.634;5.566;2023-04-25T14:15:40;17.50;58.00
58153;DHT22;43967;51.634;5.566;2023-04-25T14:21:03;17.50;58.00
58153;DHT22;43967;51.634;5.566;2023-04-25T14:26:24;17.50;58.00
58153;DHT22;43967;51.634;5.566;2023-04-25T14:31:46;17.50;58.00
58153;DHT22;43967;51.634;5.566;2023-04-25T14:37:07;17.50;58.50
58153;DHT22;43967;51.634;5.566;2023-04-25T14:42:28;17.50;57.90
58153;DHT22;43967;51.634;5.566;2023-04-25T14:47:49;17.50;57.90
58153;DHT22;43967;51.634;5.566;2023-04-25T14:53:11;17.50;57.90
58153;DHT22;43967;51.634;5.566;2023-04-25T14:58:32;17.50;57.80
58153;DHT22;43967;51.634;5.566;2023-04-25T15:03:54;17.50;57.80
58153;DHT22;43967;51.634;5.566;2023-04-25T15:09:15;17.50;57.80
58153;DHT22;43967;51.634;5.566;2023-04-25T15:14:36;17.50;57.80
58153;DHT22;43967;51.634;5.566;2023-04-25T15:19:59;17.50;57.70
58153;DHT22;43967;51.634;5.566;2023-04-25T15:25:21;17.40;57.70
58153;DHT22;43967;51.634;5.566;2023-04-25T15:30:43;17.50;57.70
58153;DHT22;43967;51.634;5.566;2023-04-25T15:36:06;17.50;57.80
58153;DHT22;43967;51.634;5.566;2023-04-25T15:41:28;17.50;57.70
58153;DHT22;43967;51.634;5.566;2023-04-25T15:46:49;17.50;57.70
58153;DHT22;43967;51.634;5.566;2023-04-25T15:52:11;17.50;57.60
58153;DHT22;43967;51.634;5.566;2023-04-25T15:57:33;17.50;57.80
58153;DHT22;43967;51.634;5.566;2023-04-25T16:02:56;17.50;57.60
58153;DHT22;43967;51.634;5.566;2023-04-25T16:08:18;17.50;57.60
58153;DHT22;43967;51.634;5.566;2023-04-25T16:13:40;17.50;57.50
58153;DHT22;43967;51.634;5.566;2023-04-25T16:19:02;17.50;57.50
58153;DHT22;43967;51.634;5.566;2023-04-25T16:24:23;17.50;57.60
58153;DHT22;43967;51.634;5.566;2023-04-25T16:29:45;17.50;57.40
58153;DHT22;43967;51.634;5.566;2023-04-25T16:35:08;17.50;57.40
58153;DHT22;43967;51.634;5.566;2023-04-25T16:40:29;17.50;57.40
58153;DHT22;43967;51.634;5.566;2023-04-25T16:45:51;17.50;57.40
58153;DHT22;43967;51.634;5.566;2023-04-25T16:51:14;17.50;57.50
58153;DHT22;43967;51.634;5.566;2023-04-25T16:56:35;17.50;57.40
58153;DHT22;43967;51.634;5.566;2023-04-25T17:01:57;17.50;57.40
58153;DHT22;43967;51.634;5.566;2023-04-25T17:07:20;17.50;57.50
58153;DHT22;43967;51.634;5.566;2023-04-25T17:12:41;17.50;57.40
58153;DHT22;43967;51.634;5.566;2023-04-25T17:18:02;17.50;57.30
58153;DHT22;43967;51.634;5.566;2023-04-25T17:23:24;17.50;57.30
58153;DHT22;43967;51.634;5.566;2023-04-25T17:28:45;17.50;57.20
58153;DHT22;43967;51.634;5.566;2023-04-25T17:34:06;17.50;57.10
58153;DHT22;43967;51.634;5.566;2023-04-25T17:39:27;17.50;57.00
58153;DHT22;43967;51.634;5.566;2023-04-25T17:44:49;17.40;56.90
58153;DHT22;43967;51.634;5.566;2023-04-25T17:50:10;17.40;56.90
58153;DHT22;43967;51.634;5.566;2023-04-25T17:55:31;17.40;56.70
58153;DHT22;43967;51.634;5.566;2023-04-25T18:00:52;17.40;56.80
58153;DHT22;43967;51.634;5.566;2023-04-25T18:06:14;17.40;57.10
58153;DHT22;43967;51.634;5.566;2023-04-25T18:11:35;17.40;57.30
58153;DHT22;43967;51.634;5.566;2023-04-25T18:16:56;17.40;57.40
58153;DHT22;43967;51.634;5.566;2023-04-25T18:22:18;17.40;57.50
58153;DHT22;43967;51.634;5.566;2023-04-25T18:27:40;17.40;57.60
58153;DHT22;43967;51.634;5.566;2023-04-25T18:33:01;17.40;57.70
58153;DHT22;43967;51.634;5.566;2023-04-25T18:38:22;17.50;57.80
58153;DHT22;43967;51.634;5.566;2023-04-25T18:43:45;17.50;57.80
58153;DHT22;43967;51.634;5.566;2023-04-25T18:49:06;17.50;57.80
58153;DHT22;43967;51.634;5.566;2023-04-25T18:54:29;17.50;57.80
58153;DHT22;43967;51.634;5.566;2023-04-25T18:59:51;17.50;57.70
58153;DHT22;43967;51.634;5.566;2023-04-25T19:05:12;17.50;57.70
58153;DHT22;43967;51.634;5.566;2023-04-25T19:10:33;17.50;57.50
58153;DHT22;43967;51.634;5.566;2023-04-25T19:15:55;17.50;57.40
58153;DHT22;43967;51.634;5.566;2023-04-25T19:21:17;17.50;57.30
58153;DHT22;43967;51.634;5.566;2023-04-25T19:26:38;17.50;57.20
58153;DHT22;43967;51.634;5.566;2023-04-25T19:31:59;17.50;56.90
58153;DHT22;43967;51.634;5.566;2023-04-25T19:37:21;17.50;56.80
58153;DHT22;43967;51.634;5.566;2023-04-25T19:42:43;17.50;56.70
58153;DHT22;43967;51.634;5.566;2023-04-25T19:48:04;17.50;56.40
58153;DHT22;43967;51.634;5.566;2023-04-25T19:53:25;17.50;56.20
58153;DHT22;43967;51.634;5.566;2023-04-25T19:58:47;17.40;56.10
58153;DHT22;43967;51.634;5.566;2023-04-25T20:04:08;17.40;56.10
58153;DHT22;43967;51.634;5.566;2023-04-25T20:09:29;17.40;56.00
58153;DHT22;43967;51.634;5.566;2023-04-25T20:14:51;17.40;56.20
58153;DHT22;43967;51.634;5.566;2023-04-25T20:20:12;17.40;56.60
58153;DHT22;43967;51.634;5.566;2023-04-25T20:25:33;17.40;56.80
58153;DHT22;43967;51.634;5.566;2023-04-25T20:30:56;17.40;57.00
58153;DHT22;43967;51.634;5.566;2023-04-25T20:36:17;17.40;57.10
58153;DHT22;43967;51.634;5.566;2023-04-25T20:41:39;17.40;57.20
58153;DHT22;43967;51.634;5.566;2023-04-25T20:47:01;17.40;57.30
58153;DHT22;43967;51.634;5.566;2023-04-25T20:52:23;17.50;57.40
58153;DHT22;43967;51.634;5.566;2023-04-25T20:57:44;17.50;57.40
58153;DHT22;43967;51.634;5.566;2023-04-25T21:03:05;17.50;57.50
58153;DHT22;43967;51.634;5.566;2023-04-25T21:08:26;17.50;57.40
58153;DHT22;43967;51.634;5.566;2023-04-25T21:13:48;17.50;57.30
58153;DHT22;43967;51.634;5.566;2023-04-25T21:19:09;17.50;57.20
58153;DHT22;43967;51.634;5.566;2023-04-25T21:24:30;17.50;57.10
58153;DHT22;43967;51.634;5.566;2023-04-25T21:29:51;17.50;56.90
58153;DHT22;43967;51.634;5.566;2023-04-25T21:35:13;17.50;56.60
58153;DHT22;43967;51.634;5.566;2023-04-25T21:40:36;17.50;56.50
58153;DHT22;43967;51.634;5.566;2023-04-25T21:46:00;17.50;56.20
58153;DHT22;43967;51.634;5.566;2023-04-25T21:51:23;17.50;56.00
58153;DHT22;43967;51.634;5.566;2023-04-25T21:56:44;17.40;55.90
58153;DHT22;43967;51.634;5.566;2023-04-25T22:02:06;17.40;56.00
58153;DHT22;43967;51.634;5.566;2023-04-25T22:07:28;17.40;55.90
58153;DHT22;43967;51.634;5.566;2023-04-25T22:12:49;17.30;55.80
58153;DHT22;43967;51.634;5.566;2023-04-25T22:18:12;17.40;55.90
58153;DHT22;43967;51.634;5.566;2023-04-25T22:23:33;17.40;56.00
58153;DHT22;43967;51.634;5.566;2023-04-25T22:28:55;17.40;56.30
58153;DHT22;43967;51.634;5.566;2023-04-25T22:34:19;17.40;56.50
58153;DHT22;43967;51.634;5.566;2023-04-25T22:39:40;17.40;56.60
58153;DHT22;43967;51.634;5.566;2023-04-25T22:45:02;17.40;56.80
58153;DHT22;43967;51.634;5.566;2023-04-25T22:50:23;17.40;56.80
58153;DHT22;43967;51.634;5.566;2023-04-25T22:55:44;17.40;56.90
58153;DHT22;43967;51.634;5.566;2023-04-25T23:01:05;17.40;57.00
58153;DHT22;43967;51.634;5.566;2023-04-25T23:12:25;17.40;56.90
58153;DHT22;43967;51.634;5.566;2023-04-25T23:17:46;17.40;56.80
58153;DHT22;43967;51.634;5.566;2023-04-25T23:23:08;17.50;56.80
58153;DHT22;43967;51.634;5.566;2023-04-25T23:28:29;17.50;56.50
58153;DHT22;43967;51.634;5.566;2023-04-25T23:33:50;17.50;56.30
58153;DHT22;43967;51.634;5.566;2023-04-25T23:39:11;17.40;56.00
58153;DHT22;43967;51.634;5.566;2023-04-25T23:44:33;17.40;55.80
58153;DHT22;43967;51.634;5.566;2023-04-25T23:49:57;17.40;55.60
58153;DHT22;43967;51.634;5.566;2023-04-25T23:55:18;17.40;55.60
